createdAt,value
2019-03-20T00:01:48.139Z,19.73
2019-03-20T00:04:19.970Z,22.07
2019-03-20T00:06:50.484Z,23.70
2019-03-20T00:09:23.075Z,31.17
2019-03-20T00:11:53.818Z,19.73
2019-03-20T00:14:24.863Z,19.87
2019-03-20T00:16:55.518Z,12.67
2019-03-20T00:19:25.917Z,25.63
2019-03-20T00:21:56.509Z,27.57
2019-03-20T00:24:27.214Z,16.83
2019-03-20T00:26:58.042Z,22.07
2019-03-20T00:29:28.517Z,20.97
2019-03-20T00:31:59.084Z,15.37
2019-03-20T00:34:29.932Z,19.10
2019-03-20T00:37:00.584Z,16.83
2019-03-20T00:39:31.315Z,29.27
2019-03-20T00:42:01.886Z,18.53
2019-03-20T00:44:32.764Z,31.27
2019-03-20T00:47:03.513Z,20.70
2019-03-20T00:49:34.190Z,24.63
2019-03-20T00:52:04.888Z,15.93
2019-03-20T00:54:35.532Z,19.00
2019-03-20T00:57:06.578Z,27.43
2019-03-20T00:59:37.414Z,20.27
2019-03-20T01:02:08.877Z,30.87
2019-03-20T01:04:39.390Z,22.43
2019-03-20T01:07:11.289Z,19.40
2019-03-20T01:09:42.933Z,22.90
2019-03-20T01:12:17.664Z,23.60
2019-03-20T01:14:47.784Z,33.53
2019-03-20T01:17:18.500Z,17.53
2019-03-20T01:19:49.189Z,31.40
2019-03-20T01:22:20.348Z,17.03
2019-03-20T01:24:51.296Z,16.80
2019-03-20T01:27:22.563Z,25.67
2019-03-20T01:29:53.328Z,28.97
2019-03-20T01:32:23.994Z,22.63
2019-03-20T01:34:55.447Z,18.67
2019-03-20T01:37:26.193Z,27.93
2019-03-20T01:39:56.705Z,15.53
2019-03-20T01:42:27.109Z,16.30
2019-03-20T01:44:57.851Z,25.17
2019-03-20T01:47:28.285Z,25.50
2019-03-20T01:49:59.038Z,18.43
2019-03-20T01:52:29.991Z,24.13
2019-03-20T01:55:00.758Z,20.70
2019-03-20T01:57:31.258Z,23.13
2019-03-20T02:00:02.217Z,19.30
2019-03-20T02:02:33.012Z,23.93
2019-03-20T02:05:03.589Z,16.40
2019-03-20T02:07:34.284Z,17.63
2019-03-20T02:10:05.512Z,21.00
2019-03-20T02:12:37.624Z,25.37
2019-03-20T02:15:10.677Z,28.40
2019-03-20T02:17:41.228Z,29.67
2019-03-20T02:20:13.831Z,28.00
2019-03-20T02:22:44.610Z,20.00
2019-03-20T02:25:16.171Z,18.07
2019-03-20T02:27:46.942Z,22.23
2019-03-20T02:30:18.144Z,21.50
2019-03-20T02:32:48.899Z,26.33
2019-03-20T02:35:19.713Z,16.93
2019-03-20T02:37:51.493Z,23.60
2019-03-20T02:40:21.994Z,21.33
2019-03-20T02:42:52.668Z,19.93
2019-03-20T02:45:23.395Z,23.47
2019-03-20T02:47:53.914Z,24.37
2019-03-20T02:50:24.582Z,26.53
2019-03-20T02:52:54.991Z,20.97
2019-03-20T02:55:25.517Z,23.50
2019-03-20T02:57:56.299Z,25.63
2019-03-20T03:00:26.680Z,37.00
2019-03-20T03:02:57.262Z,28.77
2019-03-20T03:05:27.873Z,20.43
2019-03-20T03:07:58.553Z,27.60
2019-03-20T03:10:29.167Z,26.13
2019-03-20T03:13:00.312Z,22.47
2019-03-20T03:15:30.895Z,23.07
2019-03-20T03:18:01.740Z,20.67
2019-03-20T03:20:32.456Z,16.03
2019-03-20T03:23:03.114Z,19.20
2019-03-20T03:25:33.714Z,23.43
2019-03-20T03:28:04.511Z,25.77
2019-03-20T03:30:35.259Z,23.97
2019-03-20T03:33:07.239Z,15.30
2019-03-20T03:35:37.985Z,19.73
2019-03-20T03:38:08.640Z,24.57
2019-03-20T03:40:39.553Z,23.63
2019-03-20T03:43:11.492Z,21.03
2019-03-20T03:45:42.915Z,15.33
2019-03-20T03:48:13.693Z,14.43
2019-03-20T03:50:48.087Z,26.37
2019-03-20T03:53:16.660Z,26.60
2019-03-20T03:58:35.848Z,19.83
2019-03-20T04:01:06.897Z,24.70
2019-03-20T04:03:37.699Z,21.60
2019-03-20T04:06:08.640Z,21.00
2019-03-20T04:08:40.445Z,21.87
2019-03-20T04:11:11.097Z,24.73
2019-03-20T04:13:41.954Z,24.53
2019-03-20T04:16:12.602Z,16.60
2019-03-20T04:18:43.089Z,20.87
2019-03-20T04:21:14.014Z,21.10
2019-03-20T04:24:37.569Z,17.97
2019-03-20T04:27:08.783Z,19.60
2019-03-20T04:29:40.007Z,18.40
2019-03-20T04:32:10.695Z,17.27
2019-03-20T04:34:41.721Z,26.50
2019-03-20T04:37:12.504Z,26.53
2019-03-20T04:39:44.643Z,18.10
2019-03-20T04:42:15.660Z,14.93
2019-03-20T04:44:46.232Z,16.30
2019-03-20T04:47:17.398Z,13.20
2019-03-20T04:49:48.168Z,24.03
2019-03-20T04:52:18.619Z,15.93
2019-03-20T04:54:49.405Z,20.57
2019-03-20T04:57:20.114Z,17.67
2019-03-20T04:59:50.722Z,13.40
2019-03-20T05:02:22.385Z,23.20
2019-03-20T05:04:53.263Z,18.70
2019-03-20T05:07:23.948Z,31.30
2019-03-20T05:09:54.496Z,18.60
2019-03-20T05:12:25.154Z,18.77
2019-03-20T05:14:55.893Z,20.13
2019-03-20T05:17:28.420Z,16.80
2019-03-20T05:19:59.133Z,22.57
2019-03-20T05:22:29.866Z,32.10
2019-03-20T05:25:00.700Z,18.73
2019-03-20T05:27:31.478Z,23.47
2019-03-20T05:30:01.918Z,20.37
2019-03-20T05:32:32.354Z,25.33
2019-03-20T05:35:03.384Z,18.23
2019-03-20T05:37:34.477Z,15.10
2019-03-20T05:40:05.549Z,18.57
2019-03-20T05:42:36.452Z,13.73
2019-03-20T05:45:09.006Z,13.97
2019-03-20T05:47:39.715Z,15.80
2019-03-20T05:50:11.179Z,13.87
2019-03-20T05:52:42.099Z,14.20
2019-03-20T05:55:12.934Z,23.17
2019-03-20T06:00:21.416Z,21.77
2019-03-20T06:02:52.011Z,12.20
2019-03-20T06:05:22.567Z,16.57
2019-03-20T06:07:53.360Z,16.60
2019-03-20T06:10:25.960Z,11.63
2019-03-20T06:12:56.598Z,17.13
2019-03-20T06:15:27.317Z,13.50
2019-03-20T06:17:58.007Z,14.43
2019-03-20T06:20:28.543Z,11.03
2019-03-20T06:22:59.338Z,20.57
2019-03-20T06:25:30.150Z,10.57
2019-03-20T06:28:01.001Z,13.03
2019-03-20T06:30:31.971Z,19.07
2019-03-20T06:33:02.589Z,17.53
2019-03-20T06:35:33.167Z,17.30
2019-03-20T06:38:04.039Z,15.73
2019-03-20T06:40:34.831Z,12.50
2019-03-20T06:43:05.674Z,14.63
2019-03-20T06:45:37.137Z,12.20
2019-03-20T06:48:07.766Z,13.53
2019-03-20T06:50:38.956Z,11.67
2019-03-20T06:53:09.730Z,12.13
2019-03-20T06:55:40.290Z,14.57
2019-03-20T06:58:10.899Z,18.13
2019-03-20T07:01:05.763Z,9.37
2019-03-20T07:04:13.048Z,12.03
2019-03-20T07:06:57.560Z,9.47
2019-03-20T07:10:04.457Z,12.80
2019-03-20T07:12:36.141Z,11.10
2019-03-20T07:15:07.202Z,11.63
2019-03-20T07:17:37.643Z,10.27
2019-03-20T07:20:08.834Z,12.60
2019-03-20T07:22:39.311Z,13.43
2019-03-20T07:25:09.786Z,10.70
2019-03-20T07:27:40.363Z,11.27
2019-03-20T07:30:11.942Z,20.93
2019-03-20T07:32:42.531Z,13.00
2019-03-20T07:35:13.394Z,14.77
2019-03-20T07:37:55.338Z,14.23
2019-03-20T07:40:17.427Z,13.13
2019-03-20T07:42:48.110Z,7.53
2019-03-20T07:45:18.870Z,8.67
2019-03-20T07:47:49.462Z,9.77
2019-03-20T07:50:19.936Z,8.00
2019-03-20T07:52:50.326Z,10.77
2019-03-20T07:55:21.039Z,9.00
2019-03-20T07:57:52.513Z,9.83
2019-03-20T08:00:23.246Z,13.57
2019-03-20T08:02:53.937Z,14.20
2019-03-20T08:05:29.112Z,11.97
2019-03-20T08:08:06.759Z,16.17
2019-03-20T08:10:29.612Z,16.63
2019-03-20T08:13:00.379Z,16.47
2019-03-20T08:15:31.902Z,12.20
2019-03-20T08:18:02.448Z,11.90
2019-03-20T08:20:34.295Z,8.60
2019-03-20T08:23:04.989Z,8.90
2019-03-20T08:25:35.575Z,5.90
2019-03-20T08:28:06.511Z,7.10
2019-03-20T08:30:37.151Z,14.20
2019-03-20T08:33:07.875Z,11.73
2019-03-20T08:35:38.561Z,21.47
2019-03-20T08:38:17.809Z,9.93
2019-03-20T08:40:41.908Z,15.83
2019-03-20T08:43:12.352Z,25.53
2019-03-20T08:45:42.762Z,8.00
2019-03-20T08:48:13.770Z,10.30
2019-03-20T08:50:44.422Z,13.13
2019-03-20T08:53:15.240Z,14.53
2019-03-20T08:55:46.062Z,12.77
2019-03-20T08:58:16.789Z,11.43
2019-03-20T09:00:48.075Z,6.50
2019-03-20T09:03:19.101Z,12.07
2019-03-20T09:05:49.882Z,8.27
2019-03-20T09:08:28.960Z,33.00
2019-03-20T09:10:52.641Z,7.77
2019-03-20T09:13:23.527Z,9.80
2019-03-20T09:15:56.129Z,15.60
2019-03-20T09:18:26.807Z,11.03
2019-03-20T09:21:03.783Z,11.07
2019-03-20T09:23:34.438Z,10.03
2019-03-20T09:26:05.837Z,10.43
2019-03-20T09:28:36.523Z,13.50
2019-03-20T09:31:07.382Z,16.27
2019-03-20T09:33:37.820Z,6.57
2019-03-20T09:36:08.444Z,8.67
2019-03-20T09:38:43.332Z,20.40
2019-03-20T09:41:10.993Z,6.00
2019-03-20T09:43:41.789Z,9.93
2019-03-20T09:46:12.323Z,10.90
2019-03-20T09:48:42.869Z,3.93
2019-03-20T09:51:13.473Z,10.07
2019-03-20T09:53:44.115Z,7.93
2019-03-20T09:56:14.391Z,10.87
2019-03-20T09:58:45.052Z,14.63
2019-03-20T10:01:16.321Z,8.47
2019-03-20T10:03:46.954Z,6.03
2019-03-20T10:06:17.580Z,10.50
2019-03-20T10:08:54.073Z,19.30
2019-03-20T10:11:20.302Z,6.77
2019-03-20T10:13:53.953Z,13.67
2019-03-20T10:16:25.609Z,9.50
2019-03-20T10:18:56.333Z,10.03
2019-03-20T10:21:27.119Z,5.77
2019-03-20T10:24:01.477Z,11.07
2019-03-20T10:26:32.385Z,8.17
2019-03-20T10:29:05.060Z,5.37
2019-03-20T10:31:35.740Z,7.10
2019-03-20T10:34:06.223Z,8.30
2019-03-20T10:36:37.303Z,12.10
2019-03-20T10:39:10.305Z,8.00
2019-03-20T10:41:41.680Z,7.30
2019-03-20T10:44:12.184Z,9.40
2019-03-20T10:46:42.819Z,11.13
2019-03-20T10:49:13.728Z,7.03
2019-03-20T10:51:43.976Z,8.93
2019-03-20T10:54:16.584Z,4.53
2019-03-20T10:56:48.058Z,7.57
2019-03-20T10:59:18.978Z,12.00
2019-03-20T11:01:49.526Z,5.80
2019-03-20T11:04:20.051Z,7.53
2019-03-20T11:06:50.559Z,5.83
2019-03-20T11:09:21.257Z,10.57
2019-03-20T11:12:01.400Z,9.57
2019-03-20T11:14:32.160Z,9.33
2019-03-20T11:17:02.892Z,17.80
2019-03-20T11:19:33.405Z,11.13
2019-03-20T11:22:04.153Z,18.30
2019-03-20T11:24:34.403Z,10.70
2019-03-20T11:27:05.026Z,7.50
2019-03-20T11:29:35.714Z,12.03
2019-03-20T11:32:06.567Z,9.13
2019-03-20T11:34:36.925Z,6.60
2019-03-20T11:37:07.702Z,10.80
2019-03-20T11:39:38.235Z,11.37
2019-03-20T11:42:08.832Z,13.53
2019-03-20T11:44:39.525Z,5.50
2019-03-20T11:47:10.199Z,3.50
2019-03-20T11:49:40.652Z,12.60
2019-03-20T11:52:11.346Z,3.50
2019-03-20T11:54:41.912Z,11.47
2019-03-20T11:57:13.910Z,11.50
2019-03-20T11:59:44.707Z,12.47
2019-03-20T12:02:15.633Z,11.70
2019-03-20T12:04:46.264Z,11.80
2019-03-20T12:07:16.849Z,4.23
2019-03-20T12:09:47.658Z,5.00
2019-03-20T12:12:18.126Z,9.73
2019-03-20T12:14:49.252Z,6.77
2019-03-20T12:17:20.366Z,4.70
2019-03-20T12:19:51.331Z,7.33
2019-03-20T12:22:21.882Z,5.27
2019-03-20T12:24:52.286Z,20.33
2019-03-20T12:27:23.966Z,7.30
2019-03-20T12:29:54.630Z,9.57
2019-03-20T12:32:25.416Z,6.00
2019-03-20T12:34:56.176Z,13.03
2019-03-20T12:37:26.828Z,5.63
2019-03-20T12:39:57.986Z,10.47
2019-03-20T12:42:29.589Z,11.80
2019-03-20T12:45:00.539Z,7.30
2019-03-20T12:47:31.153Z,7.17
2019-03-20T12:50:01.830Z,8.73
2019-03-20T12:52:32.390Z,9.07
2019-03-20T12:55:02.899Z,3.57
2019-03-20T12:57:33.309Z,10.83
2019-03-20T13:00:04.056Z,9.70
2019-03-20T13:02:34.605Z,5.57
2019-03-20T13:05:05.998Z,4.30
2019-03-20T13:07:36.865Z,4.07
2019-03-20T13:10:08.221Z,5.30
2019-03-20T13:12:39.820Z,7.43
2019-03-20T13:15:12.461Z,3.60
2019-03-20T13:17:43.269Z,7.87
2019-03-20T13:20:15.326Z,4.10
2019-03-20T13:22:46.298Z,6.40
2019-03-20T13:25:17.739Z,7.50
2019-03-20T13:27:48.233Z,7.03
2019-03-20T13:30:31.683Z,5.43
2019-03-20T13:33:02.917Z,12.20
2019-03-20T13:35:33.996Z,10.90
2019-03-20T13:38:04.634Z,13.23
2019-03-20T13:40:34.997Z,13.23
2019-03-20T13:43:05.911Z,11.70
2019-03-20T13:45:37.175Z,5.93
2019-03-20T13:48:07.856Z,4.60
2019-03-20T13:50:38.373Z,4.20
2019-03-20T13:53:09.125Z,8.00
2019-03-20T13:55:39.744Z,6.00
2019-03-20T13:58:10.185Z,4.77
2019-03-20T14:00:40.891Z,7.73
2019-03-20T14:03:11.797Z,6.80
2019-03-20T14:05:43.630Z,5.73
2019-03-20T14:08:14.322Z,6.20
2019-03-20T14:10:50.277Z,7.93
2019-03-20T14:13:16.832Z,5.37
2019-03-20T14:15:48.484Z,23.13
2019-03-20T14:18:20.828Z,7.27
2019-03-20T14:20:52.660Z,3.83
2019-03-20T14:23:23.258Z,6.57
2019-03-20T14:25:54.244Z,4.37
2019-03-20T14:28:24.919Z,6.23
2019-03-20T14:30:55.321Z,4.73
2019-03-20T14:33:25.755Z,13.80
2019-03-20T14:35:56.207Z,5.80
2019-03-20T14:38:27.597Z,6.13
2019-03-20T14:40:58.308Z,10.57
2019-03-20T14:43:28.814Z,10.00
2019-03-20T14:45:59.417Z,5.37
2019-03-20T14:48:30.142Z,5.60
2019-03-20T14:51:00.945Z,9.23
2019-03-20T14:53:31.865Z,4.43
2019-03-20T14:56:02.600Z,10.30
2019-03-20T14:58:35.330Z,3.97
2019-03-20T15:01:06.180Z,8.10
2019-03-20T15:03:37.774Z,6.10
2019-03-20T15:06:08.579Z,10.00
2019-03-20T15:08:39.267Z,13.40
2019-03-20T15:11:09.958Z,14.97
2019-03-20T15:13:40.901Z,10.47
2019-03-20T15:16:14.725Z,7.23
2019-03-20T15:18:45.359Z,6.30
2019-03-20T15:21:16.082Z,4.87
2019-03-20T15:23:46.714Z,6.00
2019-03-20T15:26:18.698Z,8.70
2019-03-20T15:28:48.938Z,5.70
2019-03-20T15:31:19.318Z,7.93
2019-03-20T15:33:49.995Z,5.70
2019-03-20T15:36:20.697Z,5.23
2019-03-20T15:38:51.393Z,7.27
2019-03-20T15:41:22.284Z,8.07
2019-03-20T15:44:02.164Z,9.33
2019-03-20T15:46:25.833Z,4.10
2019-03-20T15:48:56.407Z,7.90
2019-03-20T15:51:28.164Z,9.10
2019-03-20T15:53:58.857Z,6.13
2019-03-20T15:56:30.809Z,4.93
2019-03-20T15:59:01.971Z,6.20
2019-03-20T16:01:32.339Z,5.87
2019-03-20T16:04:02.781Z,7.50
2019-03-20T16:06:33.435Z,10.10
2019-03-20T16:09:05.391Z,14.20
2019-03-20T16:11:36.173Z,13.80
2019-03-20T16:14:06.941Z,15.87
2019-03-20T16:16:37.623Z,13.00
2019-03-20T16:19:11.718Z,13.33
2019-03-20T16:21:44.707Z,15.27
2019-03-20T16:24:20.357Z,14.47
2019-03-20T16:26:51.118Z,13.10
2019-03-20T16:29:21.476Z,14.17
2019-03-20T16:31:52.649Z,12.77
2019-03-20T16:34:24.392Z,16.10
2019-03-20T16:36:55.272Z,20.27
2019-03-20T16:39:25.817Z,20.60
2019-03-20T16:41:56.395Z,22.90
2019-03-20T16:44:26.738Z,41.20
2019-03-20T16:46:57.489Z,197.87
2019-03-20T16:49:27.975Z,126.37
2019-03-20T16:51:58.432Z,55.53
2019-03-20T16:54:28.995Z,128.77
2019-03-20T16:57:01.362Z,49.10
2019-03-20T16:59:32.185Z,156.23
2019-03-20T17:02:02.763Z,98.87
2019-03-20T17:04:33.899Z,56.50
2019-03-20T17:07:05.813Z,82.87
2019-03-20T17:09:36.526Z,63.83
2019-03-20T17:12:07.219Z,52.43
2019-03-20T17:14:38.002Z,51.03
2019-03-20T17:17:09.955Z,50.97
2019-03-20T17:19:40.500Z,46.53
2019-03-20T17:22:14.683Z,60.03
2019-03-20T17:24:45.056Z,80.90
2019-03-20T17:27:15.379Z,52.37
2019-03-20T17:29:45.863Z,47.80
2019-03-20T17:32:19.234Z,39.77
2019-03-20T17:34:50.757Z,58.20
2019-03-20T17:37:21.027Z,90.57
2019-03-20T17:39:51.463Z,97.43
2019-03-20T17:42:22.140Z,86.03
2019-03-20T17:44:52.647Z,76.50
2019-03-20T17:47:23.314Z,75.70
2019-03-20T17:49:54.299Z,85.17
2019-03-20T17:52:25.025Z,94.70
2019-03-20T17:54:55.744Z,102.17
2019-03-20T17:57:26.626Z,106.37
2019-03-20T17:59:57.010Z,104.03
2019-03-20T18:02:27.603Z,95.63
2019-03-20T18:04:58.074Z,42.77
2019-03-20T18:07:29.138Z,28.67
2019-03-20T18:10:00.373Z,24.63
2019-03-20T18:12:31.161Z,25.97
2019-03-20T18:15:01.678Z,43.43
2019-03-20T18:17:32.330Z,46.30
2019-03-20T18:20:05.838Z,45.27
2019-03-20T18:22:37.451Z,56.13
2019-03-20T18:25:08.903Z,76.30
2019-03-20T18:27:39.912Z,54.20
2019-03-20T18:30:27.073Z,51.80
2019-03-20T18:32:57.694Z,22.63
2019-03-20T18:35:28.447Z,22.73
2019-03-20T18:37:58.999Z,17.90
2019-03-20T18:40:29.409Z,25.27
2019-03-20T18:43:00.078Z,27.70
2019-03-20T18:45:31.151Z,19.17
2019-03-20T18:48:01.839Z,22.60
2019-03-20T18:50:32.655Z,18.07
2019-03-20T18:53:03.347Z,17.23
2019-03-20T18:55:34.067Z,20.70
2019-03-20T18:58:05.069Z,18.07
2019-03-20T19:00:36.093Z,19.30
2019-03-20T19:03:07.804Z,19.30
2019-03-20T19:06:14.349Z,28.23
2019-03-20T19:08:44.579Z,20.97
2019-03-20T19:11:18.731Z,20.07
2019-03-20T19:13:49.372Z,22.47
2019-03-20T19:16:20.430Z,22.27
2019-03-20T19:18:52.582Z,23.27
2019-03-20T19:21:23.468Z,27.40
2019-03-20T19:23:55.739Z,29.80
2019-03-20T19:26:26.454Z,24.63
2019-03-20T19:28:57.198Z,26.80
2019-03-20T19:31:29.202Z,26.93
2019-03-20T19:34:01.571Z,27.10
2019-03-20T19:36:36.976Z,29.73
2019-03-20T19:39:09.647Z,24.53
2019-03-20T19:41:40.774Z,27.43
2019-03-20T19:44:13.748Z,18.20
2019-03-20T19:46:44.483Z,20.30
2019-03-20T19:49:15.302Z,22.83
2019-03-20T19:51:46.098Z,20.30
2019-03-20T19:54:17.215Z,20.70
2019-03-20T19:56:50.008Z,33.33
2019-03-20T19:59:22.456Z,21.93
2019-03-20T20:01:53.131Z,19.20
2019-03-20T20:04:23.744Z,22.70
2019-03-20T20:06:55.824Z,21.47
2019-03-20T20:09:26.521Z,25.47
2019-03-20T20:11:58.559Z,27.93
2019-03-20T20:14:29.318Z,26.93
2019-03-20T20:17:00.359Z,28.30
2019-03-20T20:19:33.802Z,24.93
2019-03-20T20:22:05.335Z,28.90
2019-03-20T20:24:37.115Z,24.93
2019-03-20T20:27:09.323Z,29.60
2019-03-20T20:29:40.164Z,30.97
2019-03-20T20:32:11.454Z,24.40
2019-03-20T20:34:42.404Z,31.13
2019-03-20T20:37:13.019Z,27.73
2019-03-20T20:39:43.790Z,29.73
2019-03-20T20:42:14.492Z,30.77
2019-03-20T20:44:45.733Z,27.87
2019-03-20T20:47:17.864Z,26.40
2019-03-20T20:49:48.716Z,31.93
2019-03-20T20:52:19.899Z,30.23
2019-03-20T20:54:53.187Z,32.00
2019-03-20T20:57:25.081Z,29.80
2019-03-20T20:59:56.131Z,25.27
2019-03-20T21:02:26.871Z,34.50
2019-03-20T21:05:00.548Z,26.80
2019-03-20T21:07:31.276Z,24.80
2019-03-20T21:10:01.994Z,30.63
2019-03-20T21:12:32.731Z,28.30
2019-03-20T21:15:07.195Z,26.10
2019-03-20T21:18:40.057Z,27.37
2019-03-20T21:21:11.632Z,23.77
2019-03-20T21:24:18.305Z,26.30
2019-03-20T21:27:46.566Z,28.97
2019-03-20T21:30:47.277Z,25.80
2019-03-20T21:33:43.024Z,24.50
2019-03-20T21:37:01.010Z,21.80
2019-03-20T21:39:33.427Z,26.37
2019-03-20T21:42:36.448Z,25.97
2019-03-20T21:45:28.272Z,22.20
2019-03-20T21:48:00.488Z,25.47
2019-03-20T21:51:13.693Z,25.97
2019-03-20T21:54:24.776Z,24.47
2019-03-20T21:57:36.005Z,23.63
2019-03-20T22:00:36.500Z,26.57
2019-03-20T22:03:07.931Z,25.27
2019-03-20T22:06:15.127Z,24.07
2019-03-20T22:08:46.684Z,25.37
2019-03-20T22:11:52.551Z,23.43
2019-03-20T22:14:25.005Z,22.10
2019-03-20T22:17:49.869Z,21.50
2019-03-20T22:20:34.240Z,22.77
2019-03-20T22:23:22.652Z,24.33
2019-03-20T22:26:27.981Z,26.27
2019-03-20T22:29:27.440Z,30.63
2019-03-20T22:32:34.068Z,28.33
2019-03-20T22:35:31.297Z,27.30
2019-03-20T22:38:02.954Z,28.43
2019-03-20T22:41:22.743Z,22.00
2019-03-20T22:44:03.555Z,23.93
2019-03-20T22:47:11.444Z,26.97
2019-03-20T22:50:15.957Z,24.60
2019-03-20T22:53:09.204Z,22.73
2019-03-20T22:56:19.547Z,20.77
2019-03-20T22:58:51.848Z,21.17
2019-03-20T23:01:45.880Z,20.50
2019-03-20T23:04:24.453Z,26.57
2019-03-20T23:06:55.887Z,25.20
2019-03-20T23:09:26.793Z,22.57
2019-03-20T23:11:59.076Z,21.37
2019-03-20T23:14:30.867Z,21.43
2019-03-20T23:17:01.825Z,21.53
2019-03-20T23:19:34.011Z,22.23
2019-03-20T23:22:05.377Z,22.83
2019-03-20T23:24:36.267Z,24.80
2019-03-20T23:27:11.252Z,22.60
2019-03-20T23:29:42.292Z,27.70
2019-03-20T23:32:14.435Z,23.70
2019-03-20T23:34:45.578Z,23.67
2019-03-20T23:37:17.211Z,27.03
2019-03-20T23:39:49.383Z,23.57
2019-03-20T23:42:20.945Z,24.83
2019-03-20T23:44:52.128Z,23.30
2019-03-20T23:47:31.192Z,25.20
2019-03-20T23:50:03.227Z,23.07
2019-03-20T23:52:34.132Z,23.30
2019-03-20T23:55:07.015Z,25.03
2019-03-20T23:57:37.967Z,24.53
